Time;durP1;ratioP1;P1;durP2;ratioP2;P2;SDS_P1;SDS_P2;PMS_P1;PMS_P2;Temp;Humidity;BMP_temperature;BMP_pressure;BME280_temperature;BME280_humidity;BME280_pressure;Samples;Min_cycle;Max_cycle;Signal;HPM_P1;HPM_P2
2022/07/11 00:00:57;;;;;;;3.30;2.93;;;;;;;18.71;77.40;98780.63;4125369;28;20643;-85
2022/07/11 00:03:00;;;;;;;5.10;3.07;;;;;;;18.70;77.57;98783.41;4113488;28;20659;-85
2022/07/11 00:05:04;;;;;;;5.87;2.80;;;;;;;18.70;76.31;98780.75;4107863;28;21282;-85
2022/07/11 00:07:07;;;;;;;3.60;2.60;;;;;;;18.71;78.08;98783.28;4111125;28;20674;-85
2022/07/11 00:09:10;;;;;;;3.43;3.13;;;;;;;18.69;76.72;98774.66;4111859;28;20646;-85
2022/07/11 00:11:22;;;;;;;6.80;2.90;;;;;;;18.68;77.42;98767.69;4109205;28;20643;-85
2022/07/11 00:13:27;;;;;;;3.23;2.50;;;;;;;18.64;77.49;98771.59;4124831;28;21176;-85
2022/07/11 00:15:30;;;;;;;5.70;2.87;;;;;;;18.59;78.04;98765.03;4125639;28;20739;-85
2022/07/11 00:17:33;;;;;;;4.90;2.90;;;;;;;18.55;78.56;98766.28;4109061;28;20636;-85
2022/07/11 00:19:36;;;;;;;4.80;3.00;;;;;;;18.53;76.91;98770.88;4123849;28;20680;-85
2022/07/11 00:21:39;;;;;;;4.70;2.60;;;;;;;18.53;77.14;98766.41;4113316;28;20638;-86
2022/07/11 00:23:43;;;;;;;4.47;2.90;;;;;;;18.53;76.70;98770.88;4106543;28;20762;-85
2022/07/11 00:25:47;;;;;;;3.80;2.67;;;;;;;18.50;76.87;98768.50;4111240;28;20660;-86
2022/07/11 00:27:50;;;;;;;3.50;2.63;;;;;;;18.46;77.31;98767.09;4122605;28;21114;-85
2022/07/11 00:29:56;;;;;;;4.93;2.90;;;;;;;18.40;77.69;98767.66;4109724;28;21091;-86
2022/07/11 00:31:59;;;;;;;3.40;2.47;;;;;;;18.38;78.38;98766.97;4105654;28;20650;-84
2022/07/11 00:34:02;;;;;;;4.40;2.80;;;;;;;18.36;78.90;98763.63;4109093;28;20645;-86
2022/07/11 00:36:06;;;;;;;4.67;2.80;;;;;;;18.35;78.03;98761.94;4111007;28;21007;-86
2022/07/11 00:38:09;;;;;;;4.20;2.80;;;;;;;18.33;78.16;98760.41;4124745;28;20632;-85
2022/07/11 00:40:12;;;;;;;6.07;2.87;;;;;;;18.31;77.51;98759.72;4109288;28;20640;-85
2022/07/11 00:42:17;;;;;;;4.30;3.13;;;;;;;18.33;77.93;98761.25;4103943;28;20647;-85
2022/07/11 00:44:20;;;;;;;5.87;2.80;;;;;;;18.33;77.34;98755.13;4108439;28;20646;-86
2022/07/11 00:46:26;;;;;;;4.47;2.83;;;;;;;18.32;77.87;98756.94;4113273;28;20641;-85
2022/07/11 00:48:29;;;;;;;3.90;2.60;;;;;;;18.27;78.35;98747.75;4125100;28;21262;-85
2022/07/11 00:50:32;;;;;;;3.00;2.60;;;;;;;18.21;78.61;98746.50;4110312;28;20720;-86
2022/07/11 00:52:36;;;;;;;4.77;2.83;;;;;;;18.21;79.00;98764.16;4124951;28;20645;-85
2022/07/11 00:54:40;;;;;;;4.37;2.50;;;;;;;18.21;78.80;98754.41;4125284;28;20718;-85
2022/07/11 00:56:43;;;;;;;4.53;2.80;;;;;;;18.23;78.28;98754.28;4125945;28;20844;-86
2022/07/11 00:58:46;;;;;;;5.97;2.80;;;;;;;18.22;76.97;98752.59;4122581;28;20640;-85
2022/07/11 01:00:49;;;;;;;6.53;2.30;;;;;;;18.22;76.69;98757.88;4129008;28;20643;-86
2022/07/11 01:02:53;;;;;;;4.83;3.00;;;;;;;18.22;77.88;98748.16;4111704;28;20691;-86
2022/07/11 01:04:57;;;;;;;7.50;2.73;;;;;;;18.22;78.56;98747.31;4114920;28;20663;-86
2022/07/11 01:07:00;;;;;;;2.93;2.60;;;;;;;18.16;79.33;98753.13;4112733;28;20671;-86
2022/07/11 01:09:03;;;;;;;3.63;2.80;;;;;;;18.10;79.39;98746.56;4109582;28;20640;-85
2022/07/11 01:11:09;;;;;;;4.60;3.23;;;;;;;18.06;79.23;98745.16;4123696;28;20637;-85
2022/07/11 01:13:12;;;;;;;5.67;2.90;;;;;;;18.02;80.12;98741.13;4112473;28;21229;-84
2022/07/11 01:15:15;;;;;;;3.57;2.20;;;;;;;18.00;79.66;98740.41;4124659;28;20620;-85
2022/07/11 01:17:18;;;;;;;3.53;2.40;;;;;;;18.04;79.71;98740.97;4126897;28;20719;-85
2022/07/11 01:19:23;;;;;;;3.77;2.60;;;;;;;18.05;79.27;98737.38;4111887;28;20703;-85
2022/07/11 01:21:29;;;;;;;3.77;2.70;;;;;;;18.04;79.00;98739.19;4111419;28;20672;-85
2022/07/11 01:23:34;;;;;;;3.90;2.60;;;;;;;18.04;78.97;98741.84;4127889;28;21037;-86
2022/07/11 01:25:37;;;;;;;3.63;2.60;;;;;;;18.05;78.89;98745.28;4110552;28;21052;-86
2022/07/11 01:27:40;;;;;;;4.27;2.43;;;;;;;18.07;78.87;98743.34;4125265;28;20760;-85
2022/07/11 01:29:43;;;;;;;3.27;2.57;;;;;;;18.07;79.37;98738.06;4113295;28;20634;-86
2022/07/11 01:31:46;;;;;;;4.13;2.57;;;;;;;18.07;80.29;98738.91;4111321;28;20625;-85
2022/07/11 01:33:49;;;;;;;2.63;2.27;;;;;;;18.06;80.36;98744.34;4126432;28;20632;-85
2022/07/11 01:35:52;;;;;;;3.13;2.60;;;;;;;18.03;81.39;98731.41;4128335;28;20616;-86
2022/07/11 01:37:55;;;;;;;6.10;2.63;;;;;;;18.03;81.03;98741.97;4114159;28;20702;-85
2022/07/11 01:40:07;;;;;;;3.73;2.47;;;;;;;18.04;80.10;98735.69;4112545;28;20672;-85
2022/07/11 01:42:10;;;;;;;3.40;2.17;;;;;;;18.03;79.84;98736.69;4111582;28;20632;-84
2022/07/11 01:44:13;;;;;;;2.63;2.10;;;;;;;18.03;79.59;98740.16;4124469;28;21225;-85
2022/07/11 01:46:17;;;;;;;3.90;2.50;;;;;;;18.02;80.44;98743.75;4111464;28;20652;-85
2022/07/11 01:48:21;;;;;;;3.00;2.40;;;;;;;18.00;81.77;98743.06;4108744;28;20640;-86
2022/07/11 01:50:24;;;;;;;4.10;2.57;;;;;;;17.98;81.88;98742.38;4109801;28;20722;-85
2022/07/11 01:52:28;;;;;;;3.90;2.23;;;;;;;17.92;81.79;98737.63;4111186;28;20632;-85
2022/07/11 01:54:31;;;;;;;3.10;2.33;;;;;;;17.89;81.45;98738.84;4127049;28;20739;-86
2022/07/11 01:56:35;;;;;;;3.10;2.40;;;;;;;17.89;81.10;98738.84;4125295;28;20664;-85
2022/07/11 01:58:38;;;;;;;3.30;2.80;;;;;;;17.87;80.46;98741.63;4111858;28;20653;-86
2022/07/11 02:00:42;;;;;;;2.90;2.53;;;;;;;17.89;80.27;98746.78;4111445;28;21318;-85
2022/07/11 02:02:45;;;;;;;3.80;2.40;;;;;;;17.91;79.60;98734.28;4128043;28;21054;-85
2022/07/11 02:04:48;;;;;;;3.70;2.70;;;;;;;17.92;80.41;98742.91;4124307;28;20684;-85
2022/07/11 02:06:51;;;;;;;3.63;2.13;;;;;;;17.93;80.70;98734.00;4128406;28;20802;-85
2022/07/11 02:08:54;;;;;;;4.27;2.70;;;;;;;17.94;81.69;98742.78;4094105;28;20647;-85
2022/07/11 02:10:57;;;;;;;5.70;2.90;;;;;;;17.91;82.15;98732.47;4114293;28;20688;-85
2022/07/11 02:13:02;;;;;;;4.00;2.50;;;;;;;17.86;82.23;98734.69;4126787;28;20666;-85
2022/07/11 02:15:06;;;;;;;3.60;2.70;;;;;;;17.83;82.36;98729.69;4126729;28;20637;-85
2022/07/11 02:17:09;;;;;;;2.87;2.30;;;;;;;17.84;81.45;98733.16;4111582;28;20650;-85
2022/07/11 02:19:12;;;;;;;5.60;2.67;;;;;;;17.84;81.98;98733.16;4127621;28;20670;-84
2022/07/11 02:21:15;;;;;;;4.30;3.00;;;;;;;17.84;82.39;98733.16;4125702;28;20722;-86
2022/07/11 02:23:19;;;;;;;3.00;2.50;;;;;;;17.83;82.63;98734.97;4128094;28;20642;-85
2022/07/11 02:25:22;;;;;;;4.10;2.47;;;;;;;17.84;82.07;98731.34;4123689;28;21031;-85
2022/07/11 02:27:26;;;;;;;3.30;2.53;;;;;;;17.86;81.75;98734.69;4114165;28;20639;-85
2022/07/11 02:29:31;;;;;;;2.93;2.20;;;;;;;17.88;81.98;98734.56;4108175;28;21054;-85
2022/07/11 02:31:34;;;;;;;4.00;2.30;;;;;;;17.90;81.30;98733.44;4112399;28;20687;-84
2022/07/11 02:33:37;;;;;;;3.20;2.40;;;;;;;17.92;80.46;98730.66;4128558;28;20711;-86
2022/07/11 02:35:41;;;;;;;5.80;2.60;;;;;;;17.92;81.08;98734.16;4110625;28;20639;-86
2022/07/11 02:37:44;;;;;;;3.20;2.50;;;;;;;17.94;81.49;98730.41;4127945;28;20627;-85
2022/07/11 02:39:48;;;;;;;7.13;3.00;;;;;;;17.95;81.59;98737.34;4130183;28;20632;-85
2022/07/11 02:41:51;;;;;;;3.27;2.50;;;;;;;17.96;82.22;98730.25;4106829;28;20693;-85
2022/07/11 02:43:54;;;;;;;3.60;2.70;;;;;;;17.94;82.58;98734.84;4123276;28;20633;-85
2022/07/11 02:45:58;;;;;;;3.67;2.67;;;;;;;17.92;82.10;98736.81;4110106;28;21066;-85
2022/07/11 02:48:02;;;;;;;2.63;2.40;;;;;;;17.88;82.21;98730.09;4112616;28;20679;-86
2022/07/11 02:50:07;;;;;;;3.20;2.47;;;;;;;17.86;83.11;98726.78;4112837;28;20731;-85
2022/07/11 02:52:12;;;;;;;4.13;2.50;;;;;;;17.82;82.69;98730.63;4109625;28;20630;-85
2022/07/11 02:54:15;;;;;;;3.07;2.40;;;;;;;17.85;82.38;98729.56;4128689;28;20638;-85
2022/07/11 02:56:18;;;;;;;3.30;2.33;;;;;;;17.84;81.99;98738.44;4111190;28;20645;-86
2022/07/11 02:58:21;;;;;;;4.47;2.50;;;;;;;17.84;80.30;98741.88;4124401;28;20629;-85
2022/07/11 03:00:24;;;;;;;3.40;2.53;;;;;;;17.87;80.47;98736.34;4113063;28;20640;-85
2022/07/11 03:02:28;;;;;;;4.23;2.77;;;;;;;17.88;81.20;98745.13;4109462;28;21251;-85
2022/07/11 03:04:31;;;;;;;4.13;2.50;;;;;;;17.88;81.38;98734.56;4111727;28;21050;-85
2022/07/11 03:06:34;;;;;;;3.30;2.37;;;;;;;17.88;80.95;98745.94;4111627;28;20673;-86
2022/07/11 03:08:39;;;;;;;3.87;2.80;;;;;;;17.88;82.91;98740.66;4112345;28;20702;-85
2022/07/11 03:10:42;;;;;;;3.67;2.60;;;;;;;17.84;82.97;98738.44;4114898;28;20756;-85
2022/07/11 03:12:48;;;;;;;4.30;2.50;;;;;;;17.82;83.33;98746.47;4111575;28;20641;-85
2022/07/11 03:14:51;;;;;;;3.17;2.50;;;;;;;17.80;83.84;98737.00;4109462;28;20645;-85
2022/07/11 03:16:54;;;;;;;4.20;2.53;;;;;;;17.80;84.21;98737.00;4105566;28;20640;-85
2022/07/11 03:18:59;;;;;;;8.50;2.67;;;;;;;17.80;84.20;98737.88;4114441;28;20688;-85
2022/07/11 03:21:02;;;;;;;3.70;2.23;;;;;;;17.81;84.62;98731.59;4110263;28;20653;-86
2022/07/11 03:23:05;;;;;;;2.87;2.63;;;;;;;17.83;83.84;98737.59;4126269;28;20645;-85
2022/07/11 03:25:09;;;;;;;3.17;2.60;;;;;;;17.84;82.21;98738.44;4111786;28;20723;-85
2022/07/11 03:27:12;;;;;;;7.73;2.83;;;;;;;17.85;82.52;98734.81;4108734;28;21340;-85
2022/07/11 03:29:15;;;;;;;4.30;2.87;;;;;;;17.88;82.51;98735.38;4110018;28;20688;-85
2022/07/11 03:31:19;;;;;;;5.33;4.00;;;;;;;17.91;81.84;98739.56;4125675;28;20649;-85
2022/07/11 03:33:23;;;;;;;3.00;2.50;;;;;;;17.91;82.42;98732.47;4127994;28;20692;-85
2022/07/11 03:35:43;;;;;;;5.40;3.23;;;;;;;17.90;83.37;98738.72;4111317;28;20641;-85
2022/07/11 03:37:46;;;;;;;3.17;2.70;;;;;;;17.87;84.10;98738.97;4126509;28;21228;-86
2022/07/11 03:39:49;;;;;;;3.73;2.70;;;;;;;17.84;83.58;98744.53;4129922;28;20640;-86
2022/07/11 03:41:54;;;;;;;2.87;2.57;;;;;;;17.85;83.10;98746.22;4093901;28;20622;-85
2022/07/11 03:43:57;;;;;;;3.13;2.53;;;;;;;17.83;82.41;98740.25;4123767;28;20644;-86
2022/07/11 03:46:00;;;;;;;3.83;2.77;;;;;;;17.86;83.49;98747.91;4112535;28;20660;-84
2022/07/11 03:48:04;;;;;;;4.20;2.80;;;;;;;17.87;83.97;98738.97;4125010;28;20628;-85
2022/07/11 03:50:07;;;;;;;5.57;2.80;;;;;;;17.85;84.29;98742.75;4128899;28;21250;-85
2022/07/11 03:52:12;;;;;;;4.33;2.50;;;;;;;17.85;84.35;98746.22;4110128;28;20679;-86
2022/07/11 03:54:15;;;;;;;4.80;2.83;;;;;;;17.86;83.61;98749.69;4126664;28;20625;-85
2022/07/11 03:56:22;;;;;;;3.33;2.57;;;;;;;17.88;82.89;98743.31;4126041;28;20651;-85
2022/07/11 03:58:25;;;;;;;4.40;2.80;;;;;;;17.89;83.13;98739.72;4108757;28;20645;-85
2022/07/11 04:00:31;;;;;;;6.20;2.80;;;;;;;17.91;83.54;98737.75;4111104;28;20745;-86
2022/07/11 04:02:36;;;;;;;2.60;2.40;;;;;;;17.92;84.69;98741.22;4112331;28;20648;-85
2022/07/11 04:04:39;;;;;;;3.93;3.20;;;;;;;17.91;83.97;98740.41;4124659;28;20640;-85
2022/07/11 04:06:43;;;;;;;4.07;2.63;;;;;;;17.94;84.19;98740.13;4127041;28;20675;-85
2022/07/11 04:08:48;;;;;;;6.50;2.97;;;;;;;17.95;85.15;98736.50;4123126;28;20658;-85
2022/07/11 04:10:51;;;;;;;6.27;3.20;;;;;;;17.94;85.06;98735.69;4126191;28;20662;-85
2022/07/11 04:12:54;;;;;;;3.17;2.80;;;;;;;17.92;84.97;98737.63;4112514;28;20732;-86
2022/07/11 04:14:57;;;;;;;3.83;2.67;;;;;;;17.91;85.08;98740.41;4124540;28;20748;-85
2022/07/11 04:17:00;;;;;;;5.00;2.80;;;;;;;17.90;84.45;98738.72;4122354;28;20635;-85
2022/07/11 04:19:04;;;;;;;3.83;2.90;;;;;;;17.91;83.97;98745.69;4124178;28;20998;-85
2022/07/11 04:21:07;;;;;;;4.63;3.37;;;;;;;17.93;84.14;98735.81;4107450;28;20691;-85
2022/07/11 04:23:11;;;;;;;4.10;2.90;;;;;;;17.95;83.73;98741.78;4094741;28;20634;-86
2022/07/11 04:25:15;;;;;;;4.60;3.37;;;;;;;17.98;83.02;98741.50;4108614;28;20704;-85
2022/07/11 04:27:18;;;;;;;5.47;3.10;;;;;;;18.01;82.64;98738.59;4110068;28;20668;-85
2022/07/11 04:29:25;;;;;;;4.10;3.00;;;;;;;18.02;83.88;98745.56;4126226;28;20644;-85
2022/07/11 04:31:28;;;;;;;5.23;3.00;;;;;;;18.05;82.96;98750.56;4114687;28;20648;-85
2022/07/11 04:33:31;;;;;;;6.70;3.07;;;;;;;18.07;83.57;98746.00;4127073;28;20711;-85
2022/07/11 04:35:34;;;;;;;3.50;2.60;;;;;;;18.09;83.34;98749.34;4128808;28;21026;-85
2022/07/11 04:37:37;;;;;;;5.47;2.87;;;;;;;18.10;83.92;98746.56;4129572;28;20649;-86
2022/07/11 04:39:40;;;;;;;3.90;2.90;;;;;;;18.13;83.75;98746.34;4131830;28;20700;-86
2022/07/11 04:41:45;;;;;;;5.67;3.40;;;;;;;18.14;83.00;98747.16;4115168;28;20682;-84
2022/07/11 04:43:48;;;;;;;5.03;2.97;;;;;;;18.16;83.17;98742.56;4115268;28;20659;-86
2022/07/11 04:45:51;;;;;;;3.50;2.80;;;;;;;18.18;83.47;98744.13;4110529;28;20653;-86
2022/07/11 04:48:02;;;;;;;3.23;2.83;;;;;;;18.22;83.51;98742.03;4126843;28;20687;-85
2022/07/11 04:50:06;;;;;;;4.90;3.17;;;;;;;18.23;82.41;98747.19;4112677;28;20736;-85
2022/07/11 04:52:09;;;;;;;4.10;2.93;;;;;;;18.24;82.67;98748.03;4112706;28;21212;-85
2022/07/11 04:54:12;;;;;;;4.77;3.43;;;;;;;18.27;82.84;98745.13;4096733;28;20643;-85
2022/07/11 04:56:15;;;;;;;4.50;3.40;;;;;;;18.31;83.35;98747.34;4128373;28;20656;-85
2022/07/11 04:58:19;;;;;;;4.03;3.40;;;;;;;18.35;83.01;98745.28;4128183;28;20629;-84
2022/07/11 05:00:23;;;;;;;4.40;3.53;;;;;;;18.38;83.80;98747.63;4110837;28;20639;-85
2022/07/11 05:02:26;;;;;;;3.93;3.50;;;;;;;18.41;83.38;98756.13;4127441;28;21276;-85
2022/07/11 05:04:29;;;;;;;4.07;3.40;;;;;;;18.43;82.66;98747.09;4111384;28;20652;-85
2022/07/11 05:06:32;;;;;;;4.60;3.70;;;;;;;18.46;82.98;98746.81;4113655;28;20681;-85
2022/07/11 05:08:36;;;;;;;5.10;3.70;;;;;;;18.48;82.54;98750.16;4115145;28;20643;-85
2022/07/11 05:10:39;;;;;;;4.53;3.70;;;;;;;18.51;82.93;98757.81;4115523;28;20684;-86
2022/07/11 05:12:42;;;;;;;4.90;3.43;;;;;;;18.54;82.95;98751.41;4120212;28;20629;-85
2022/07/11 05:14:46;;;;;;;4.87;3.70;;;;;;;18.55;81.99;98753.94;4129237;28;20636;-85
2022/07/11 05:16:49;;;;;;;4.33;3.30;;;;;;;18.59;82.22;98759.75;4113475;28;20680;-85
2022/07/11 05:18:53;;;;;;;5.13;4.20;;;;;;;18.58;80.71;98761.59;4129513;28;20717;-86
2022/07/11 05:20:56;;;;;;;5.03;3.80;;;;;;;18.59;80.55;98765.88;4131930;28;20698;-86
2022/07/11 05:22:59;;;;;;;4.97;3.67;;;;;;;18.61;81.26;98766.59;4131306;28;21107;-86
2022/07/11 05:25:02;;;;;;;5.33;3.87;;;;;;;18.64;80.91;98771.59;4112218;28;20656;-86
2022/07/11 05:27:06;;;;;;;5.40;4.00;;;;;;;18.67;80.68;98771.31;4132021;28;21331;-86
2022/07/11 05:29:09;;;;;;;3.53;3.23;;;;;;;18.72;80.54;98771.75;4130056;28;20610;-86
2022/07/11 05:31:13;;;;;;;3.83;3.40;;;;;;;18.75;80.00;98776.75;4115734;28;20641;-85
2022/07/11 05:33:16;;;;;;;3.73;3.33;;;;;;;18.77;80.39;98776.63;4132355;28;20751;-87
2022/07/11 05:35:20;;;;;;;4.80;4.00;;;;;;;18.79;79.84;98782.59;4130991;28;21268;-87
2022/07/11 05:37:23;;;;;;;4.30;3.50;;;;;;;18.84;80.61;98773.28;4126636;28;21058;-86
2022/07/11 05:39:26;;;;;;;6.90;4.00;;;;;;;18.86;80.81;98773.13;4111342;28;20630;-86
2022/07/11 05:41:29;;;;;;;4.53;4.10;;;;;;;18.88;80.68;98769.38;4130708;28;21079;-87
2022/07/11 05:43:32;;;;;;;7.37;4.13;;;;;;;18.90;80.33;98773.53;4112666;28;21065;-86
2022/07/11 05:45:35;;;;;;;7.13;4.13;;;;;;;18.93;79.81;98778.56;4117077;28;20666;-83
2022/07/11 05:47:40;;;;;;;6.00;4.67;;;;;;;18.98;80.05;98776.31;4130942;28;20657;-87
2022/07/11 05:49:43;;;;;;;6.27;4.23;;;;;;;19.01;79.86;98789.28;4114431;28;21077;-85
2022/07/11 05:51:46;;;;;;;6.27;4.60;;;;;;;19.02;79.30;98777.75;4127489;28;20621;-84
2022/07/11 05:53:50;;;;;;;8.93;5.40;;;;;;;19.06;80.34;98786.22;4127882;28;20737;-82
2022/07/11 05:55:53;;;;;;;9.23;4.80;;;;;;;19.06;80.12;98787.09;4097190;28;20646;-87
2022/07/11 05:57:56;;;;;;;4.63;4.03;;;;;;;19.07;80.84;98782.63;4111161;28;20632;-83
2022/07/11 05:59:59;;;;;;;5.67;4.20;;;;;;;19.06;80.61;98783.59;4112558;28;20665;-83
2022/07/11 06:02:03;;;;;;;5.70;3.80;;;;;;;19.12;80.72;98777.75;4127908;28;20655;-86
2022/07/11 06:04:07;;;;;;;6.53;4.83;;;;;;;19.15;79.12;98782.75;4128777;28;22221;-85
2022/07/11 06:06:11;;;;;;;20.37;17.90;;;;;;;19.19;80.59;98786.78;4126452;28;20716;-85
2022/07/11 06:10:35;;;;;;;4.37;3.97;;;;;;;19.32;79.51;98784.69;4124450;28;20828;-85
2022/07/11 06:12:38;;;;;;;6.60;4.60;;;;;;;19.36;80.28;98783.44;4110311;28;20638;-85
2022/07/11 06:14:41;;;;;;;5.37;4.10;;;;;;;19.38;79.22;98777.03;4124478;28;20695;-85
2022/07/11 06:16:44;;;;;;;6.93;4.17;;;;;;;19.41;78.72;98782.84;4126055;28;21206;-84
2022/07/11 06:18:47;;;;;;;4.43;4.00;;;;;;;19.44;78.89;98784.41;4125781;28;20650;-84
2022/07/11 06:20:52;;;;;;;5.37;4.00;;;;;;;19.50;80.02;98774.06;4121353;28;20705;-84
2022/07/11 06:22:55;;;;;;;6.67;4.20;;;;;;;19.58;78.77;98776.81;4113713;28;21237;-84
2022/07/11 06:24:58;;;;;;;4.90;3.90;;;;;;;19.63;78.80;98779.88;4111219;28;21156;-85
2022/07/11 06:27:01;;;;;;;4.60;4.20;;;;;;;19.67;77.52;98773.31;4129617;28;21318;-85
2022/07/11 06:29:04;;;;;;;5.53;4.20;;;;;;;19.74;77.85;98778.84;4110740;28;20645;-85
2022/07/11 06:31:07;;;;;;;6.63;4.27;;;;;;;19.83;78.99;98781.50;4124361;28;21052;-85
2022/07/11 06:33:13;;;;;;;8.17;4.30;;;;;;;19.93;79.58;98784.97;4109770;28;20629;-85
2022/07/11 06:35:16;;;;;;;7.23;4.20;;;;;;;20.01;76.60;98782.41;4113515;28;20672;-84
2022/07/11 06:37:20;;;;;;;5.73;4.50;;;;;;;20.07;76.65;98781.81;4128605;28;20725;-84
2022/07/11 06:39:24;;;;;;;6.77;4.50;;;;;;;20.17;76.88;98782.63;4115620;28;20653;-84
2022/07/11 06:41:27;;;;;;;5.00;4.50;;;;;;;20.27;77.68;98784.25;4111128;28;20659;-84
2022/07/11 06:43:30;;;;;;;6.03;4.20;;;;;;;20.37;77.00;98780.56;4126577;28;21039;-85
2022/07/11 06:45:34;;;;;;;7.53;4.73;;;;;;;20.51;76.83;98781.88;4110037;28;20643;-85
2022/07/11 06:47:37;;;;;;;8.30;7.50;;;;;;;20.62;74.97;98781.66;4107077;28;20644;-85
2022/07/11 06:49:40;;;;;;;5.87;4.93;;;;;;;20.74;74.71;98789.28;4109466;28;20646;-85
2022/07/11 06:51:43;;;;;;;6.60;4.30;;;;;;;20.85;75.57;98786.41;4108819;28;20999;-85
2022/07/11 06:53:48;;;;;;;5.70;4.40;;;;;;;21.02;75.29;98782.94;4106900;28;21196;-85
2022/07/11 06:55:51;;;;;;;5.70;3.67;;;;;;;21.16;73.64;98791.19;4109237;28;20648;-85
2022/07/11 06:57:54;;;;;;;6.17;4.30;;;;;;;21.23;72.53;98786.94;4111012;28;20698;-85
2022/07/11 07:00:18;;;;;;;5.53;4.10;;;;;;;21.43;74.20;98780.44;4129391;28;20635;-85
2022/07/11 07:02:23;;;;;;;4.20;3.80;;;;;;;21.57;73.62;98788.69;4112524;28;20720;-85
2022/07/11 07:04:27;;;;;;;5.30;3.80;;;;;;;21.66;72.93;98785.09;4106002;28;20648;-85
2022/07/11 07:06:30;;;;;;;6.00;3.27;;;;;;;21.72;71.46;98784.47;4105701;28;20656;-85
2022/07/11 07:08:33;;;;;;;3.60;3.17;;;;;;;21.81;72.47;98784.41;4104760;28;21247;-85
2022/07/11 07:10:38;;;;;;;4.13;3.20;;;;;;;21.92;71.44;98792.09;4128515;28;20682;-86
2022/07/11 07:12:41;;;;;;;4.63;3.27;;;;;;;21.97;70.74;98787.13;4108124;28;20622;-85
2022/07/11 07:14:44;;;;;;;4.27;2.80;;;;;;;21.98;70.61;98793.28;4113678;28;20637;-85
2022/07/11 07:16:47;;;;;;;3.60;2.90;;;;;;;22.00;70.90;98780.69;4114520;28;20691;-85
2022/07/11 07:18:51;;;;;;;3.60;3.23;;;;;;;22.05;70.71;98795.13;4112100;28;20640;-85
2022/07/11 07:20:54;;;;;;;4.30;3.40;;;;;;;22.13;71.12;98792.53;4129147;28;20663;-85
2022/07/11 07:22:57;;;;;;;4.17;3.77;;;;;;;22.21;70.32;98795.25;4110398;28;20633;-85
2022/07/11 07:25:00;;;;;;;5.10;3.60;;;;;;;22.23;71.50;98796.75;4110410;28;20634;-86
2022/07/11 07:27:06;;;;;;;4.53;3.77;;;;;;;22.32;71.68;98792.31;4110684;28;20701;-85
2022/07/11 07:29:09;;;;;;;3.60;3.30;;;;;;;22.41;71.64;98799.31;4110310;28;21249;-85
2022/07/11 07:31:12;;;;;;;5.80;3.80;;;;;;;22.46;71.05;98797.88;4109685;28;21356;-85
2022/07/11 07:33:19;;;;;;;3.33;3.03;;;;;;;22.57;71.38;98805.53;4127378;28;20638;-85
2022/07/11 07:35:42;;;;;;;6.33;3.37;;;;;;;22.67;70.71;98800.91;4129175;28;20687;-85
2022/07/11 07:37:45;;;;;;;3.60;3.07;;;;;;;22.75;69.90;98803.59;4124091;28;21223;-85
2022/07/11 07:39:48;;;;;;;5.50;3.77;;;;;;;22.82;70.74;98800.13;4124130;28;20689;-86
2022/07/11 07:41:51;;;;;;;5.87;3.27;;;;;;;22.88;69.95;98799.47;4124565;28;21116;-85
2022/07/11 07:43:56;;;;;;;3.73;3.20;;;;;;;23.13;69.56;98795.88;4122294;28;20648;-86
2022/07/11 07:45:59;;;;;;;5.93;2.90;;;;;;;23.18;69.81;98798.84;4108367;28;20724;-86
2022/07/11 07:48:02;;;;;;;3.30;2.63;;;;;;;23.21;68.43;98802.03;4108253;28;21235;-86
2022/07/11 07:50:06;;;;;;;3.40;3.10;;;;;;;23.31;69.19;98800.03;4109197;28;20650;-86
2022/07/11 07:52:09;;;;;;;3.20;2.80;;;;;;;23.38;66.71;98795.72;4112579;28;20629;-86
2022/07/11 07:54:13;;;;;;;4.07;3.10;;;;;;;23.49;67.98;98784.72;4111929;28;20659;-86
2022/07/11 07:56:16;;;;;;;6.70;3.20;;;;;;;23.55;67.24;98784.03;4112874;28;21196;-86
2022/07/11 07:58:19;;;;;;;5.57;3.60;;;;;;;23.52;67.51;98788.88;4107620;28;20665;-85
2022/07/11 08:02:44;;;;;;;9.07;3.27;;;;;;;24.06;68.75;98799.66;4114126;28;21023;-86
2022/07/11 08:04:48;;;;;;;6.30;3.70;;;;;;;24.32;67.47;98796.56;4123238;28;20689;-85
2022/07/11 08:06:51;;;;;;;7.93;4.07;;;;;;;24.65;67.27;98796.22;4123106;28;21342;-86
2022/07/11 08:08:54;;;;;;;7.70;6.90;;;;;;;24.78;67.42;98799.19;4119768;28;20936;-84
2022/07/11 08:11:00;;;;;;;8.77;5.73;;;;;;;24.82;64.80;98794.31;4113819;28;20834;-84
2022/07/11 08:13:23;;;;;;;4.00;3.53;;;;;;;24.93;66.30;98797.41;4127700;28;20693;-86
2022/07/11 08:15:28;;;;;;;4.27;3.43;;;;;;;24.91;65.20;98786.09;4111934;28;20646;-86
2022/07/11 08:17:31;;;;;;;6.30;2.90;;;;;;;24.77;64.71;98794.00;4111883;28;20736;-86
2022/07/11 08:19:34;;;;;;;5.60;3.10;;;;;;;24.75;65.28;98793.38;4111174;28;20636;-86
2022/07/11 08:21:37;;;;;;;6.30;3.20;;;;;;;24.75;65.75;98794.19;4113014;28;21242;-86
2022/07/11 08:23:40;;;;;;;7.97;6.23;;;;;;;24.72;64.60;98788.38;4130001;28;20641;-86
2022/07/11 08:25:43;;;;;;;3.60;3.00;;;;;;;24.72;65.08;98783.84;4126021;28;20636;-86
2022/07/11 08:27:46;;;;;;;3.10;2.80;;;;;;;24.69;64.10;98794.06;4128343;28;21028;-86
2022/07/11 08:29:49;;;;;;;4.80;3.03;;;;;;;24.65;64.83;98793.56;4126162;28;21036;-86
2022/07/11 08:31:54;;;;;;;3.87;3.07;;;;;;;24.61;64.83;98786.06;4113556;28;20663;-86
2022/07/11 08:33:58;;;;;;;6.30;2.90;;;;;;;24.54;64.09;98790.47;4128932;28;20668;-87
2022/07/11 08:36:02;;;;;;;5.30;3.10;;;;;;;24.54;63.46;98785.13;4133733;28;20633;-86
2022/07/11 08:38:05;;;;;;;4.47;3.23;;;;;;;24.58;64.83;98783.75;4119792;28;20676;-86
2022/07/11 08:40:09;;;;;;;5.87;3.00;;;;;;;24.54;63.92;98784.31;4135320;28;21553;-87
2022/07/11 08:42:12;;;;;;;6.57;2.90;;;;;;;24.69;63.63;98784.22;4133634;28;20651;-86
2022/07/11 08:44:16;;;;;;;8.73;2.83;;;;;;;24.79;64.01;98782.16;4129898;28;20731;-87
2022/07/11 08:46:20;;;;;;;4.50;3.10;;;;;;;24.95;64.05;98773.22;4112056;28;20643;-86
2022/07/11 08:48:25;;;;;;;5.87;3.57;;;;;;;25.01;62.93;98772.53;4113505;28;20652;-87
2022/07/11 08:50:29;;;;;;;5.80;3.00;;;;;;;24.97;62.16;98768.50;4115832;28;20638;-86
2022/07/11 08:52:33;;;;;;;6.30;3.33;;;;;;;24.99;64.19;98774.53;4111956;28;21211;-86
2022/07/11 08:54:36;;;;;;;4.83;3.00;;;;;;;25.13;64.74;98765.78;4129724;28;20710;-86
2022/07/11 08:56:39;;;;;;;4.23;2.67;;;;;;;25.32;64.94;98766.13;4126126;28;20676;-87
2022/07/11 08:58:45;;;;;;;3.10;2.80;;;;;;;25.56;64.73;98768.53;4106406;28;20633;-87
2022/07/11 09:00:56;;;;;;;5.13;2.90;;;;;;;25.54;63.41;98766.06;4130983;28;21059;-86
2022/07/11 09:03:00;;;;;;;4.60;2.30;;;;;;;25.48;61.30;98772.13;4130903;28;20716;-86
2022/07/11 09:05:07;;;;;;;3.00;2.67;;;;;;;25.32;61.71;98769.63;4113979;28;21033;-86
2022/07/11 09:07:10;;;;;;;4.50;2.50;;;;;;;25.26;63.13;98767.66;4116750;28;21049;-86
2022/07/11 09:09:13;;;;;;;3.77;2.40;;;;;;;25.26;62.87;98767.66;4130914;28;20669;-87
2022/07/11 09:11:16;;;;;;;4.20;2.60;;;;;;;25.25;62.63;98762.50;4132052;28;20655;-85
2022/07/11 09:13:20;;;;;;;3.63;2.67;;;;;;;25.25;62.45;98771.31;4130999;28;20676;-86
2022/07/11 09:15:35;;;;;;;5.33;3.17;;;;;;;25.06;61.00;98765.63;4115809;28;20635;-86
2022/07/11 09:17:39;;;;;;;4.13;2.60;;;;;;;24.80;61.89;98756.28;4114433;28;21331;-86
2022/07/11 09:19:42;;;;;;;3.30;3.00;;;;;;;24.76;62.30;98749.63;4112388;28;20645;-86
2022/07/11 09:26:50;;;;;;;4.17;2.90;;;;;;;25.08;62.85;98763.63;4127772;28;20655;-87
2022/07/11 09:29:05;;;;;;;4.30;2.80;;;;;;;25.06;64.23;98764.81;4114972;28;21236;-87
2022/07/11 09:31:18;;;;;;;3.13;2.83;;;;;;;24.98;62.88;98760.31;4119330;28;20687;-87
2022/07/11 09:33:22;;;;;;;8.50;2.90;;;;;;;24.84;64.15;98749.59;4129660;28;21098;-87
2022/07/11 09:35:26;;;;;;;3.97;2.93;;;;;;;24.73;64.73;98760.66;4117791;28;20634;-87
2022/07/11 09:37:44;;;;;;;3.60;2.83;;;;;;;24.53;63.47;98761.28;4130033;28;20863;-86
2022/07/11 09:39:48;;;;;;;3.77;2.93;;;;;;;24.34;64.07;98757.22;4112913;28;20872;-87
2022/07/11 09:41:53;;;;;;;3.77;3.00;;;;;;;24.16;63.79;98753.94;4129885;28;20661;-87
2022/07/11 09:44:09;;;;;;;3.30;2.77;;;;;;;24.06;65.68;98759.66;4116918;28;20670;-86
2022/07/11 09:46:13;;;;;;;3.30;3.00;;;;;;;23.97;65.34;98756.16;4123232;28;20664;-87
2022/07/11 09:48:16;;;;;;;3.20;2.90;;;;;;;23.89;64.64;98755.34;4117761;28;20629;-86
2022/07/11 09:50:19;;;;;;;3.80;2.90;;;;;;;23.82;64.42;98751.72;4110660;28;22007;-86
2022/07/11 09:52:22;;;;;;;3.43;2.70;;;;;;;23.65;63.13;98752.75;4116825;28;20654;-86
2022/07/11 09:54:27;;;;;;;3.50;2.80;;;;;;;23.52;62.94;98752.41;4114312;28;20628;-86